.
WxDataArchive / Data Records for 2008-07-29
2008-07-28 July 2008 2008-07-30

Data Records for Tuesday, 29 July 2008

Time	Temp	Chill	HIndex	Humid	Dewpt	 Wind 	HiWind	WindDir	Rain 	Barom 
-----	----	-----	------	-----	-----	------	------	-------	-----	----- 
00:00	68.9	68.9	68.9	91	66.2	0	0	---	0.00	29.848 
00:05	68.8	68.8	68.8	91	66.1	0	0	---	0.00	29.844 
00:10	68.6	68.6	68.6	91	65.9	0	0	---	0.00	29.843 
00:15	68.6	68.6	68.6	91	65.9	0	0	---	0.00	29.840 
00:20	68.4	68.4	68.4	92	66.0	0	0	---	0.00	29.840 
00:25	68.4	68.4	68.4	92	66.0	0	0	---	0.00	29.836 
00:30	68.3	68.3	68.3	92	65.9	0	0	---	0.00	29.835 
00:35	68.3	68.3	68.3	92	65.9	0	0	---	0.00	29.834 
00:40	68.1	68.1	68.1	92	65.7	0	0	---	0.00	29.834 
00:45	68.1	68.1	68.1	92	65.7	0	0	---	0.00	29.833 
00:50	67.9	67.9	67.9	92	65.5	0	0	---	0.00	29.833 
00:55	67.9	67.9	67.9	92	65.5	0	0	---	0.00	29.834 
01:00	67.8	67.8	67.8	92	65.4	0	0	---	0.00	29.834 
01:05	67.8	67.8	67.8	92	65.4	0	0	---	0.00	29.834 
01:10	67.6	67.6	67.6	93	65.5	0	0	---	0.00	29.832 
01:15	67.6	67.6	67.6	93	65.5	0	0	---	0.00	29.830 
01:20	67.4	67.4	67.4	93	65.3	0	0	---	0.00	29.832 
01:25	67.4	67.4	67.4	93	65.3	0	0	---	0.00	29.834 
01:30	67.3	67.3	67.3	93	65.2	0	0	---	0.00	29.835 
01:35	67.3	67.3	67.3	93	65.2	0	0	---	0.00	29.835 
01:40	67.1	67.1	67.1	93	65.0	0	0	---	0.00	29.835 
01:45	67.1	67.1	67.1	93	65.0	0	0	---	0.00	29.835 
01:50	67.1	67.1	67.1	93	65.0	0	0	---	0.00	29.835 
01:55	66.9	66.9	66.9	94	65.1	0	0	---	0.00	29.835 
02:00	66.9	66.9	66.9	94	65.1	0	0	---	0.00	29.836 
02:05	66.8	66.8	66.8	94	65.0	0	0	---	0.00	29.834 
02:10	66.6	66.6	66.6	94	64.8	0	0	---	0.00	29.832 
02:15	66.6	66.6	66.6	94	64.8	0	0	---	0.00	29.831 
02:20	66.4	66.4	66.4	94	64.6	0	0	---	0.00	29.833 
02:25	66.4	66.4	66.4	94	64.6	0	0	---	0.00	29.831 
02:30	66.3	66.3	66.3	94	64.5	0	0	---	0.00	29.829 
02:35	66.3	66.3	66.3	94	64.5	0	0	---	0.00	29.829 
02:40	66.1	66.1	66.1	94	64.3	0	0	---	0.00	29.831 
02:45	66.0	66.0	66.0	94	64.2	0	0	---	0.00	29.835 
02:50	66.0	66.0	66.0	94	64.2	0	0	---	0.00	29.836 
02:55	66.0	66.0	66.0	94	64.2	0	0	---	0.00	29.836 
03:00	65.8	65.8	65.8	94	64.0	0	0	---	0.00	29.834 
03:05	65.6	65.6	65.6	94	63.8	0	0	---	0.00	29.833 
03:10	65.6	65.6	65.6	95	64.1	0	0	---	0.00	29.834 
03:15	65.6	65.6	65.6	95	64.1	0	0	---	0.00	29.833 
03:20	65.6	65.6	65.6	95	64.1	0	0	---	0.00	29.833 
03:25	65.5	65.5	65.5	95	64.0	0	0	---	0.00	29.833 
03:30	65.3	65.3	65.3	95	63.8	0	0	---	0.00	29.832 
03:35	65.2	65.2	65.2	95	63.7	0	0	---	0.00	29.832 
03:40	65.2	65.2	65.2	95	63.7	0	0	---	0.00	29.831 
03:45	65.2	65.2	65.2	95	63.7	0	0	---	0.00	29.829 
03:50	65.0	65.0	65.0	95	63.5	0	0	---	0.00	29.829 
03:55	64.8	64.8	64.8	95	63.3	0	0	---	0.00	29.825 
04:00	64.7	64.7	64.7	95	63.2	0	0	---	0.00	29.826 
04:05	64.7	64.7	64.7	95	63.2	0	0	---	0.00	29.827 
04:10	64.7	64.7	64.7	95	63.2	0	0	---	0.00	29.834 
04:15	64.7	64.7	64.7	95	63.2	0	0	---	0.00	29.834 
04:20	64.7	64.7	64.7	95	63.2	0	0	---	0.00	29.835 
04:25	64.7	64.7	64.7	95	63.2	0	0	---	0.00	29.837 
04:30	64.5	64.5	64.5	95	63.0	0	0	---	0.00	29.838 
04:35	64.5	64.5	64.5	95	63.0	0	0	---	0.00	29.838 
04:40	64.3	64.3	64.3	95	62.8	0	0	---	0.00	29.838 
04:45	64.2	64.2	64.2	95	62.7	0	0	---	0.00	29.843 
04:50	64.2	64.2	64.2	95	62.7	0	0	---	0.00	29.839 
04:55	64.2	64.2	64.2	95	62.7	0	0	---	0.00	29.841 
05:00	64.2	64.2	64.2	95	62.7	0	0	---	0.00	29.851 
05:05	64.2	64.2	64.2	96	63.0	0	0	---	0.00	29.853 
05:10	64.2	64.2	64.2	96	63.0	0	0	---	0.00	29.854 
05:15	64.0	64.0	64.0	96	62.8	0	0	---	0.00	29.855 
05:20	64.0	64.0	64.0	96	62.8	0	0	---	0.00	29.855 
05:25	64.0	64.0	64.0	96	62.8	0	0	---	0.00	29.852 
05:30	64.0	64.0	64.0	96	62.8	0	0	---	0.00	29.851 
05:35	63.9	63.9	63.9	96	62.7	0	0	---	0.00	29.852 
05:40	63.9	63.9	63.9	96	62.7	0	0	---	0.00	29.852 
05:45	63.9	63.9	63.9	96	62.7	0	0	---	0.00	29.853 
05:50	63.9	63.9	63.9	96	62.7	0	0	---	0.00	29.854 
05:55	63.9	63.9	63.9	96	62.7	0	0	---	0.00	29.856 
06:00	63.9	63.9	63.9	96	62.7	0	0	---	0.00	29.857 
06:05	63.9	63.9	63.9	96	62.7	0	0	---	0.00	29.857 
06:10	64.0	64.0	64.0	96	62.8	0	0	---	0.00	29.856 
06:15	64.0	64.0	64.0	96	62.8	0	0	---	0.00	29.856 
06:20	64.2	64.2	64.2	96	63.0	0	0	---	0.00	29.855 
06:25	64.5	64.5	64.5	96	63.3	0	0	---	0.00	29.855 
06:30	64.8	64.8	64.8	96	63.6	0	0	---	0.00	29.857 
06:35	65.0	65.0	65.0	96	63.8	0	0	---	0.00	29.859 
06:40	65.3	65.3	65.3	96	64.1	0	0	---	0.00	29.857 
06:45	65.5	65.5	65.5	96	64.3	0	0	---	0.00	29.855 
06:50	65.8	65.8	65.8	96	64.6	0	0	---	0.00	29.858 
06:55	66.1	66.1	66.1	96	64.9	0	0	---	0.00	29.857 
07:00	66.4	66.4	66.4	96	65.2	0	0	---	0.00	29.865 
07:05	67.1	67.1	67.1	96	65.9	0	0	---	0.00	29.869 
07:10	67.6	67.6	67.6	96	66.4	0	0	---	0.00	29.871 
07:15	68.4	68.4	68.4	96	67.2	0	0	---	0.00	29.876 
07:20	68.6	68.6	68.6	96	67.4	0	0	---	0.00	29.878 
07:25	69.4	69.4	69.4	96	68.2	0	0	---	0.00	29.870 
07:30	70.3	70.3	70.3	94	68.5	0	0	---	0.00	29.870 
07:35	71.5	71.5	71.5	92	69.0	0	0	---	0.00	29.867 
07:40	72.1	72.1	72.1	88	68.3	0	0	---	0.00	29.870 
07:45	72.8	72.8	72.8	84	67.7	0	0	---	0.00	29.870 
07:50	73.9	73.9	73.9	82	68.0	0	0	---	0.00	29.869 
07:55	75.1	75.1	75.8	79	68.1	0	0	---	0.00	29.871 
08:00	76.1	76.1	77.6	73	66.8	0	1	90	0.00	29.877 
08:05	76.7	76.7	78.4	71	66.6	0	1	90	0.00	29.881 
08:10	77.2	77.2	79.0	69	66.2	0	1	90	0.00	29.878 
08:15	77.6	77.6	79.5	69	66.6	0	1	90	0.00	29.878 
08:20	78.1	78.1	80.1	68	66.7	0	1	90	0.00	29.880 
08:25	78.5	78.5	80.6	68	67.0	0	0	---	0.00	29.879 
08:30	78.8	78.8	81.0	68	67.3	0	1	90	0.00	29.880 
08:35	79.0	79.0	81.2	67	67.1	0	1	90	0.00	29.880 
08:40	79.2	79.2	81.4	66	66.8	0	1	90	0.00	29.880 
08:45	79.9	79.9	82.0	63	66.2	0	2	90	0.00	29.878 
08:50	80.7	80.7	82.9	62	66.4	0	2	90	0.00	29.877 
08:55	80.9	80.9	83.1	61	66.2	0	1	90	0.00	29.881 
09:00	80.3	80.3	82.4	62	66.1	0	1	90	0.00	29.885 
09:05	79.9	79.9	81.9	62	65.7	0	1	90	0.00	29.884 
09:10	79.8	79.8	81.7	61	65.1	0	1	90	0.00	29.880 
09:15	79.8	79.8	81.9	63	66.1	0	1	90	0.00	29.880 
09:20	79.8	79.8	81.9	63	66.1	0	1	90	0.00	29.879 
09:25	80.1	80.1	82.4	64	66.8	0	1	90	0.00	29.874 
09:30	80.1	80.1	82.2	62	65.9	0	2	90	0.00	29.875 
09:35	80.3	80.3	82.4	62	66.1	0	1	90	0.00	29.877 
09:40	80.9	80.9	83.1	61	66.2	0	1	90	0.00	29.875 
09:45	81.1	81.1	83.3	61	66.4	0	2	90	0.00	29.875 
09:50	81.4	81.4	83.4	59	65.7	0	2	90	0.00	29.876 
09:55	81.8	81.8	83.5	56	64.5	0	2	90	0.00	29.876 
10:00	82.0	82.0	84.1	58	65.7	0	2	90	0.00	29.871 
10:05	82.6	82.6	84.5	56	65.3	0	2	180	0.00	29.869 
10:10	82.6	82.6	84.7	57	65.8	0	2	180	0.00	29.872 
10:15	82.4	82.4	83.9	54	64.1	1	2	0	0.00	29.873 
10:20	83.0	83.0	85.1	56	65.7	0	1	270	0.00	29.872 
10:25	83.2	83.2	85.1	55	65.3	1	2	270	0.00	29.877 
10:30	83.6	83.6	85.7	55	65.7	1	2	270	0.00	29.873 
10:35	84.0	84.0	86.3	55	66.1	0	2	270	0.00	29.873 
10:40	84.3	84.3	86.2	53	65.3	0	2	292	0.00	29.872 
10:45	84.0	84.0	85.3	51	63.9	0	2	292	0.00	29.870 
10:50	83.2	83.2	84.5	52	63.7	0	1	292	0.00	29.869 
10:55	83.4	83.4	85.0	53	64.4	0	2	292	0.00	29.868 
11:00	84.0	84.0	85.6	52	64.4	1	2	292	0.00	29.866 
11:05	84.5	84.5	86.3	52	64.9	0	1	270	0.00	29.869 
11:10	84.7	84.7	86.0	50	64.0	1	3	270	0.00	29.864 
11:15	84.0	84.0	85.3	51	63.9	1	3	270	0.00	29.867 
11:20	83.4	83.4	85.8	57	66.5	1	2	270	0.00	29.865 
11:25	84.0	84.0	85.8	53	65.0	0	2	270	0.00	29.864 
11:30	84.3	84.3	86.2	53	65.3	1	5	270	0.00	29.863 
11:35	84.5	84.5	86.0	51	64.4	0	1	270	0.00	29.856 
11:40	85.3	85.3	87.1	51	65.1	0	1	270	0.00	29.855 
11:45	86.1	86.1	88.6	52	66.4	0	1	270	0.00	29.853 
11:50	86.5	86.5	87.8	47	63.8	0	2	248	0.00	29.851 
11:55	86.7	86.7	87.8	46	63.4	1	2	248	0.00	29.851 
12:00	86.7	86.7	88.9	50	65.8	0	2	248	0.00	29.852 
12:05	87.2	87.2	88.8	47	64.5	0	2	248	0.00	29.850 
12:10	87.4	87.4	88.8	46	64.0	0	1	248	0.00	29.851 
12:15	87.2	87.2	88.5	46	63.9	0	2	248	0.00	29.849 
12:20	86.5	86.5	87.5	46	63.2	1	2	248	0.00	29.849 
12:25	86.3	86.3	87.8	48	64.3	0	2	248	0.00	29.849 
12:30	86.5	86.5	88.3	49	65.0	0	1	248	0.00	29.848 
12:35	87.4	87.4	88.5	45	63.4	0	4	248	0.00	29.848 
12:40	87.0	87.0	87.9	45	63.1	1	3	112	0.00	29.847 
12:45	86.3	86.3	87.8	48	64.3	1	3	112	0.00	29.845 
12:50	86.1	86.1	86.5	44	61.6	1	3	112	0.00	29.845 
12:55	86.5	86.5	87.0	44	62.0	1	4	68	0.00	29.841 
13:00	87.4	87.4	88.5	45	63.4	0	3	68	0.00	29.838 
13:05	87.8	87.8	87.9	41	61.1	0	1	68	0.00	29.836 
13:10	87.4	87.4	87.6	42	61.5	0	2	68	0.00	29.838 
13:15	87.4	87.4	87.4	41	60.8	1	2	68	0.00	29.834 
13:20	87.2	87.2	87.6	43	61.9	0	2	68	0.00	29.834 
13:25	87.0	87.0	87.6	44	62.4	1	2	68	0.00	29.833 
13:30	86.5	86.5	87.5	46	63.2	0	2	68	0.00	29.833 
13:35	86.1	86.1	86.5	44	61.6	0	1	68	0.00	29.834 
13:40	86.3	86.3	87.8	48	64.3	0	2	68	0.00	29.834 
13:45	86.7	86.7	87.0	43	61.5	0	2	68	0.00	29.832 
13:50	87.6	87.6	89.1	46	64.2	0	2	68	0.00	29.832 
13:55	88.4	88.4	89.6	44	63.7	0	1	68	0.00	29.831 
14:00	89.0	89.0	88.7	38	60.1	1	3	90	0.00	29.828 
14:05	89.5	89.5	90.0	40	61.9	0	2	90	0.00	29.828 
14:10	89.5	89.5	90.0	40	61.9	1	4	112	0.00	29.826 
14:15	89.7	89.7	90.6	41	62.8	1	3	112	0.00	29.825 
14:20	89.7	89.7	89.6	38	60.7	0	2	292	0.00	29.824 
14:25	89.7	89.7	89.9	39	61.4	0	2	270	0.00	29.822 
14:30	89.3	89.3	90.0	41	62.5	0	2	270	0.00	29.819 
14:35	89.0	89.0	90.2	43	63.6	0	2	270	0.00	29.818 
14:40	89.3	89.3	91.4	45	65.1	1	4	270	0.00	29.817 
14:45	89.7	89.7	90.9	42	63.5	1	2	202	0.00	29.815 
14:50	90.3	90.3	91.8	42	64.0	0	2	202	0.00	29.814 
14:55	90.5	90.5	91.4	40	62.8	1	5	90	0.00	29.814 
15:00	89.9	89.9	90.9	41	63.0	1	4	68	0.00	29.815 
15:05	89.3	89.3	90.6	43	63.8	1	4	90	0.00	29.815 
15:10	89.0	89.0	89.3	40	61.5	1	3	90	0.00	29.813 
15:15	88.8	88.8	89.6	42	62.7	1	3	90	0.00	29.813 
15:20	88.6	88.6	89.6	43	63.2	1	5	90	0.00	29.812 
15:25	88.2	88.2	88.7	42	62.2	1	3	90	0.00	29.812 
15:30	87.8	87.8	88.5	43	62.5	1	4	90	0.00	29.806 
15:35	87.8	87.8	88.8	44	63.1	1	4	90	0.00	29.804 
15:40	88.2	88.2	89.0	43	62.8	1	4	248	0.00	29.803 
15:45	88.6	88.6	89.9	44	63.9	1	4	68	0.00	29.802 
15:50	88.8	88.8	89.0	40	61.3	1	3	338	0.00	29.801 
15:55	89.3	89.3	89.7	40	61.8	1	4	270	0.00	29.801 
16:00	89.5	89.5	89.6	39	61.2	2	4	135	0.00	29.801 
16:05	89.5	89.5	89.3	38	60.5	2	7	112	0.00	29.799 
16:10	89.3	89.3	89.4	39	61.0	2	4	90	0.00	29.799 
16:15	88.8	88.8	88.4	38	59.9	2	5	112	0.00	29.797 
16:20	88.6	88.6	88.4	39	60.4	1	4	90	0.00	29.795 
16:25	88.8	88.8	88.4	38	59.9	1	5	90	0.00	29.796 
16:30	88.8	88.8	88.7	39	60.6	1	5	90	0.00	29.796 
16:35	88.6	88.6	88.2	38	59.7	2	5	270	0.00	29.793 
16:40	88.6	88.6	88.4	39	60.4	1	6	112	0.00	29.790 
16:45	88.6	88.6	88.4	39	60.4	1	5	68	0.00	29.789 
16:50	88.6	88.6	88.4	39	60.4	1	4	68	0.00	29.788 
16:55	88.2	88.2	88.2	40	60.8	2	7	112	0.00	29.786 
17:00	88.0	88.0	88.2	41	61.3	1	3	112	0.00	29.783 
17:05	88.0	88.0	88.2	41	61.3	1	3	135	0.00	29.781 
17:10	87.8	87.8	88.2	42	61.8	1	9	135	0.00	29.778 
17:15	87.6	87.6	87.9	42	61.6	1	3	68	0.00	29.773 
17:20	87.4	87.4	87.9	43	62.1	1	4	112	0.00	29.773 
17:25	87.2	87.2	87.6	43	61.9	1	6	90	0.00	29.772 
17:30	87.2	87.2	87.9	44	62.6	1	3	90	0.00	29.773 
17:35	87.2	87.2	87.9	44	62.6	1	2	90	0.00	29.774 
17:40	87.0	87.0	87.6	44	62.4	1	3	90	0.00	29.773 
17:45	86.7	86.7	87.5	45	62.8	1	2	90	0.00	29.771 
17:50	86.5	86.5	87.2	45	62.6	0	2	90	0.00	29.770 
17:55	86.3	86.3	87.0	45	62.4	1	2	68	0.00	29.772 
18:00	86.3	86.3	86.7	44	61.8	0	2	68	0.00	29.773 
18:05	86.1	86.1	87.0	46	62.9	0	2	68	0.00	29.771 
18:10	85.9	85.9	86.7	46	62.7	1	3	68	0.00	29.770 
18:15	85.7	85.7	86.7	47	63.1	0	2	270	0.00	29.772 
18:20	85.5	85.5	86.6	48	63.5	0	2	270	0.00	29.774 
18:25	85.5	85.5	86.6	48	63.5	0	2	270	0.00	29.774 
18:30	85.3	85.3	86.6	49	63.9	0	2	112	0.00	29.775 
18:35	85.3	85.3	86.9	50	64.5	0	2	112	0.00	29.774 
18:40	85.1	85.1	86.6	50	64.3	0	1	112	0.00	29.776 
18:45	84.9	84.9	86.3	50	64.2	0	2	112	0.00	29.774 
18:50	84.7	84.7	86.0	50	64.0	1	3	90	0.00	29.776 
18:55	84.5	84.5	85.8	50	63.8	0	2	90	0.00	29.776 
19:00	84.3	84.3	85.7	51	64.2	0	2	90	0.00	29.776 
19:05	84.1	84.1	85.5	51	64.0	0	2	90	0.00	29.776 
19:10	84.0	84.0	85.6	52	64.4	0	2	68	0.00	29.778 
19:15	83.8	83.8	85.5	53	64.8	0	1	68	0.00	29.775 
19:20	83.6	83.6	85.5	54	65.2	0	1	68	0.00	29.771 
19:25	83.4	83.4	85.2	54	65.0	0	1	68	0.00	29.772 
19:30	83.0	83.0	84.9	55	65.1	0	1	68	0.00	29.775 
19:35	82.6	82.6	84.3	55	64.8	0	1	68	0.00	29.775 
19:40	82.2	82.2	84.0	56	64.9	0	1	68	0.00	29.775 
19:45	81.8	81.8	83.6	57	65.0	0	1	45	0.00	29.773 
19:50	81.6	81.6	83.5	58	65.4	0	1	45	0.00	29.775 
19:55	81.2	81.2	83.0	58	65.0	0	1	45	0.00	29.775 
20:00	81.1	81.1	82.9	58	64.9	0	1	45	0.00	29.772 
20:05	80.7	80.7	82.4	58	64.5	0	1	45	0.00	29.768 
20:10	80.5	80.5	82.2	58	64.3	0	1	45	0.00	29.768 
20:15	80.3	80.3	81.9	58	64.2	0	0	---	0.00	29.765 
20:20	80.1	80.1	81.7	58	64.0	0	1	45	0.00	29.767 
20:25	79.9	79.9	81.6	59	64.3	0	0	---	0.00	29.775 
20:30	79.6	79.6	81.3	59	64.0	0	0	---	0.00	29.780 
20:35	79.4	79.4	81.1	60	64.3	0	0	---	0.00	29.781 
20:40	79.2	79.2	80.8	59	63.6	0	0	---	0.00	29.784 
20:45	78.8	78.8	80.5	60	63.7	0	0	---	0.00	29.782 
20:50	78.6	78.6	80.3	60	63.5	0	0	---	0.00	29.784 
20:55	78.5	78.5	80.2	60	63.4	0	1	45	0.00	29.784 
21:00	78.3	78.3	80.0	61	63.7	0	0	---	0.00	29.787 
21:05	78.1	78.1	79.8	61	63.5	0	1	45	0.00	29.786 
21:10	78.1	78.1	79.8	61	63.5	0	0	---	0.00	29.785 
21:15	78.1	78.1	79.8	61	63.5	0	0	---	0.00	29.784 
21:20	77.9	77.9	79.6	61	63.3	0	0	---	0.00	29.784 
21:25	77.7	77.7	79.4	62	63.6	0	0	---	0.00	29.784 
21:30	77.7	77.7	79.4	62	63.6	0	0	---	0.00	29.783 
21:35	77.6	77.6	79.4	62	63.5	0	0	---	0.00	29.784 
21:40	77.4	77.4	79.2	63	63.8	0	0	---	0.00	29.784 
21:45	77.2	77.2	79.0	64	64.1	0	0	---	0.00	29.783 
21:50	77.0	77.0	78.8	65	64.3	0	0	---	0.00	29.783 
21:55	76.8	76.8	78.6	65	64.1	0	0	---	0.00	29.785 
22:00	76.5	76.5	78.3	65	63.8	0	0	---	0.00	29.783 
22:05	76.3	76.3	78.1	66	64.1	0	0	---	0.00	29.782 
22:10	76.1	76.1	77.9	67	64.3	0	0	---	0.00	29.784 
22:15	76.0	76.0	77.8	67	64.2	0	0	---	0.00	29.787 
22:20	75.8	75.8	77.6	67	64.0	0	0	---	0.00	29.788 
22:25	75.8	75.8	77.6	67	64.0	0	0	---	0.00	29.786 
22:30	75.8	75.8	77.6	68	64.5	0	0	---	0.00	29.786 
22:35	75.6	75.6	77.4	68	64.3	0	0	---	0.00	29.784 
22:40	75.6	75.6	77.3	69	64.7	0	0	---	0.00	29.783 
22:45	75.6	75.6	77.3	69	64.7	0	0	---	0.00	29.782 
22:50	75.6	75.6	77.3	69	64.7	0	0	---	0.00	29.784 
22:55	75.6	75.6	77.3	69	64.7	0	0	---	0.00	29.786 
23:00	75.6	75.6	77.3	69	64.7	0	0	---	0.00	29.787 
23:05	75.6	75.6	77.3	69	64.7	0	0	---	0.00	29.785 
23:10	75.8	75.8	77.5	69	64.9	0	0	---	0.00	29.783 
23:15	75.8	75.8	77.5	69	64.9	0	0	---	0.00	29.781 
23:20	75.8	75.8	77.5	69	64.9	0	0	---	0.00	29.781 
23:25	76.1	76.1	77.8	69	65.2	0	0	---	0.00	29.779 
23:30	76.1	76.1	77.8	69	65.2	0	0	---	0.00	29.778 
23:35	76.3	76.3	78.0	69	65.4	0	0	---	0.00	29.779 
23:40	76.3	76.3	78.0	69	65.4	0	0	---	0.00	29.779 
23:45	76.3	76.3	78.0	70	65.8	0	0	---	0.00	29.778 
23:50	76.1	76.1	77.8	70	65.6	0	0	---	0.00	29.777 
23:55	76.3	76.3	78.0	70	65.8	0	0	---	0.00	29.776 

CoCoRaHS
IN-AL-39
A2 Web Hosting
Creative Commons License
GoDaddy
Look for:

loaded 2017-10-17 18:10:04 • last modified 2010-11-18 10:43:29
Privacy PolicyDisclaimer
• wx.awcolley.com is powered by PmWiki v.2002016 •
• all content (unless otherwise noted) © 2017 A W Colley